Konstantis IV — SY6956 — position and weather

sailwx.info

Track history (hours):
 
Tides and Currents Weather Stations Pressure Air Temp Water Temp Dewpoint Dewpoint Depression Visibility Wind Speed Wind Dir Waves Ship Positions

Konstantis IV

Last reported at 2017-Nov-19 14:24 UTC. Time now 2017-Nov-22 16:42 UTC.
Position N 40°51' E 024°19'.

Length 29 m; draft 2.4 m.

Type: Fishing. MMSI: 240488000.

Date/timePositionNaut miles runAvg speedWind from/ knotsBaromVisibWave heightAir tempDewpointWater temp
2017-Nov-19 14:24N 40°51' E 024°19'0 0.0
2017-Nov-19 13:53N 40°51' E 024°19'0 0.0
2017-Nov-19 13:30N 40°51' E 024°19'0 0.0
2017-Nov-19 13:01N 40°51' E 024°19'0 0.0
2017-Nov-19 12:30N 40°51' E 024°19'0 0.0
2017-Nov-19 12:00N 40°51' E 024°19'0 0.0
2017-Nov-19 11:25N 40°51' E 024°19'0 0.0
2017-Nov-19 10:59N 40°51' E 024°19'0 0.0
2017-Nov-19 10:21N 40°51' E 024°19'0 0.0
2017-Nov-19 10:00N 40°51' E 024°19'0 0.0
2017-Nov-19 09:31N 40°51' E 024°19'0 0.0
2017-Nov-19 08:44N 40°51' E 024°19'0 0.0
2017-Nov-19 06:54N 40°51' E 024°19'0 0.0
2017-Nov-18 19:34N 40°51' E 024°19'0 2.9
2017-Nov-18 19:31N 40°51' E 024°19'510.5
2017-Nov-18 19:00N 40°47' E 024°24'2 3.1
2017-Nov-18 18:31N 40°46' E 024°25'0 0.4
2017-Nov-18 18:01N 40°46' E 024°25'0 0.3
2017-Nov-18 17:30N 40°46' E 024°25'0 0.6
2017-Nov-18 17:00N 40°46' E 024°25'0 0.5
2017-Nov-18 16:30N 40°46' E 024°25'0 0.4
2017-Nov-18 16:01N 40°46' E 024°25'  
2017-Nov-11 20:38N 40°46' E 024°22'0 1.5
2017-Nov-11 20:30N 40°46' E 024°22'0 0.1
2017-Nov-11 20:00N 40°46' E 024°22'1 1.9
2017-Nov-11 19:30N 40°46' E 024°20'0 0.1
2017-Nov-11 19:00N 40°46' E 024°20'0 0.1
2017-Nov-11 18:30N 40°46' E 024°20'3 5.1
2017-Nov-11 17:59N 40°46' E 024°24'3 5.3
2017-Nov-11 17:28N 40°47' E 024°27'0 0.2
2017-Nov-11 17:00N 40°47' E 024°27'0 0.9
2017-Nov-11 16:30N 40°47' E 024°28'3 0.1
2017-Nov-09 18:55N 40°48' E 024°25'3 7.6
2017-Nov-09 18:30N 40°47' E 024°28'0 0.8
2017-Nov-09 18:00N 40°47' E 024°28'1 1.2
2017-Nov-09 17:30N 40°47' E 024°27'  
Track history (hours):
 
Tides and Currents Weather Stations Pressure Air Temp Water Temp Dewpoint Dewpoint Depression Visibility Wind Speed Wind Dir Waves Ship Positions

Konstantis IV

Last reported at 2017-Nov-19 14:24 UTC. Time now 2017-Nov-22 16:42 UTC.
Position N 40°51' E 024°19'.

Length 29 m; draft 2.4 m.

Type: Fishing. MMSI: 240488000.

Date/timePositionNaut miles runAvg speedWind from/ knotsBaromVisibWave heightAir tempDewpointWater temp
2017-Nov-19 14:24N 40°51' E 024°19'0 0.0
2017-Nov-19 13:53N 40°51' E 024°19'0 0.0
2017-Nov-19 13:30N 40°51' E 024°19'0 0.0
2017-Nov-19 13:01N 40°51' E 024°19'0 0.0
2017-Nov-19 12:30N 40°51' E 024°19'0 0.0
2017-Nov-19 12:00N 40°51' E 024°19'0 0.0
2017-Nov-19 11:25N 40°51' E 024°19'0 0.0
2017-Nov-19 10:59N 40°51' E 024°19'0 0.0
2017-Nov-19 10:21N 40°51' E 024°19'0 0.0
2017-Nov-19 10:00N 40°51' E 024°19'0 0.0
2017-Nov-19 09:31N 40°51' E 024°19'0 0.0
2017-Nov-19 08:44N 40°51' E 024°19'0 0.0
2017-Nov-19 06:54N 40°51' E 024°19'0 0.0
2017-Nov-18 19:34N 40°51' E 024°19'0 2.9
2017-Nov-18 19:31N 40°51' E 024°19'510.5
2017-Nov-18 19:00N 40°47' E 024°24'2 3.1
2017-Nov-18 18:31N 40°46' E 024°25'0 0.4
2017-Nov-18 18:01N 40°46' E 024°25'0 0.3
2017-Nov-18 17:30N 40°46' E 024°25'0 0.6
2017-Nov-18 17:00N 40°46' E 024°25'0 0.5
2017-Nov-18 16:30N 40°46' E 024°25'0 0.4
2017-Nov-18 16:01N 40°46' E 024°25'  
2017-Nov-11 20:38N 40°46' E 024°22'0 1.5
2017-Nov-11 20:30N 40°46' E 024°22'0 0.1
2017-Nov-11 20:00N 40°46' E 024°22'1 1.9
2017-Nov-11 19:30N 40°46' E 024°20'0 0.1
2017-Nov-11 19:00N 40°46' E 024°20'0 0.1
2017-Nov-11 18:30N 40°46' E 024°20'3 5.1
2017-Nov-11 17:59N 40°46' E 024°24'3 5.3
2017-Nov-11 17:28N 40°47' E 024°27'0 0.2
2017-Nov-11 17:00N 40°47' E 024°27'0 0.9
2017-Nov-11 16:30N 40°47' E 024°28'3 0.1
2017-Nov-09 18:55N 40°48' E 024°25'3 7.6
2017-Nov-09 18:30N 40°47' E 024°28'0 0.8
2017-Nov-09 18:00N 40°47' E 024°28'1 1.2
2017-Nov-09 17:30N 40°47' E 024°27'  

Dump ship's entire track history